sensor_id;sensor_type;location;lat;lon;timestamp;P1;durP1;ratioP1;P2;durP2;ratioP2
3259;SDS011;68938;48.150;14.004;2023-12-20T00:01:02;54.57;;;36.90;;
3259;SDS011;68938;48.150;14.004;2023-12-20T00:03:29;49.73;;;35.30;;
3259;SDS011;68938;48.150;14.004;2023-12-20T00:06:08;44.63;;;33.63;;
3259;SDS011;68938;48.150;14.004;2023-12-20T00:08:35;48.20;;;34.67;;
3259;SDS011;68938;48.150;14.004;2023-12-20T00:11:02;43.70;;;29.67;;
3259;SDS011;68938;48.150;14.004;2023-12-20T00:13:29;47.00;;;31.20;;
3259;SDS011;68938;48.150;14.004;2023-12-20T00:15:56;49.40;;;33.73;;
3259;SDS011;68938;48.150;14.004;2023-12-20T00:18:23;48.60;;;35.07;;
3259;SDS011;68938;48.150;14.004;2023-12-20T00:20:50;51.20;;;32.73;;
3259;SDS011;68938;48.150;14.004;2023-12-20T00:23:17;48.57;;;33.83;;
3259;SDS011;68938;48.150;14.004;2023-12-20T00:25:44;46.53;;;33.70;;
3259;SDS011;68938;48.150;14.004;2023-12-20T00:28:11;49.93;;;32.87;;
3259;SDS011;68938;48.150;14.004;2023-12-20T00:30:38;50.40;;;33.70;;
3259;SDS011;68938;48.150;14.004;2023-12-20T00:33:05;51.40;;;33.20;;
3259;SDS011;68938;48.150;14.004;2023-12-20T00:35:32;45.30;;;33.40;;
3259;SDS011;68938;48.150;14.004;2023-12-20T00:37:59;47.77;;;32.30;;
3259;SDS011;68938;48.150;14.004;2023-12-20T00:40:26;37.50;;;30.50;;
3259;SDS011;68938;48.150;14.004;2023-12-20T00:42:53;38.87;;;27.67;;
3259;SDS011;68938;48.150;14.004;2023-12-20T00:45:19;32.63;;;27.47;;
3259;SDS011;68938;48.150;14.004;2023-12-20T00:47:46;34.17;;;26.63;;
3259;SDS011;68938;48.150;14.004;2023-12-20T00:50:14;41.23;;;27.50;;
3259;SDS011;68938;48.150;14.004;2023-12-20T00:52:41;33.67;;;29.00;;
3259;SDS011;68938;48.150;14.004;2023-12-20T00:55:08;35.83;;;25.90;;
3259;SDS011;68938;48.150;14.004;2023-12-20T00:57:34;33.83;;;26.53;;
3259;SDS011;68938;48.150;14.004;2023-12-20T01:00:01;34.20;;;25.10;;
3259;SDS011;68938;48.150;14.004;2023-12-20T01:02:29;37.10;;;27.20;;
3259;SDS011;68938;48.150;14.004;2023-12-20T01:04:55;31.33;;;25.30;;
3259;SDS011;68938;48.150;14.004;2023-12-20T01:07:22;32.50;;;24.53;;
3259;SDS011;68938;48.150;14.004;2023-12-20T01:09:49;33.90;;;26.57;;
3259;SDS011;68938;48.150;14.004;2023-12-20T01:12:16;32.17;;;24.37;;
3259;SDS011;68938;48.150;14.004;2023-12-20T01:14:43;31.77;;;24.60;;
3259;SDS011;68938;48.150;14.004;2023-12-20T01:17:10;30.93;;;22.93;;
3259;SDS011;68938;48.150;14.004;2023-12-20T01:19:36;35.47;;;23.47;;
3259;SDS011;68938;48.150;14.004;2023-12-20T01:22:04;32.87;;;23.47;;
3259;SDS011;68938;48.150;14.004;2023-12-20T01:24:31;30.60;;;23.17;;
3259;SDS011;68938;48.150;14.004;2023-12-20T01:26:58;28.50;;;22.80;;
3259;SDS011;68938;48.150;14.004;2023-12-20T01:29:25;31.67;;;26.30;;
3259;SDS011;68938;48.150;14.004;2023-12-20T01:31:51;30.27;;;23.20;;
3259;SDS011;68938;48.150;14.004;2023-12-20T01:34:18;31.40;;;25.80;;
3259;SDS011;68938;48.150;14.004;2023-12-20T01:36:45;31.20;;;22.97;;
3259;SDS011;68938;48.150;14.004;2023-12-20T01:39:13;28.47;;;22.97;;
3259;SDS011;68938;48.150;14.004;2023-12-20T01:41:53;29.50;;;23.00;;
3259;SDS011;68938;48.150;14.004;2023-12-20T01:44:20;29.33;;;23.00;;
3259;SDS011;68938;48.150;14.004;2023-12-20T01:46:47;29.00;;;23.00;;
3259;SDS011;68938;48.150;14.004;2023-12-20T01:49:14;31.27;;;24.53;;
3259;SDS011;68938;48.150;14.004;2023-12-20T01:51:43;28.33;;;21.90;;
3259;SDS011;68938;48.150;14.004;2023-12-20T01:54:10;30.60;;;23.60;;
3259;SDS011;68938;48.150;14.004;2023-12-20T01:56:37;28.50;;;23.57;;
3259;SDS011;68938;48.150;14.004;2023-12-20T01:59:06;27.47;;;23.13;;
3259;SDS011;68938;48.150;14.004;2023-12-20T02:01:34;30.50;;;23.10;;
3259;SDS011;68938;48.150;14.004;2023-12-20T02:04:01;29.77;;;23.30;;
3259;SDS011;68938;48.150;14.004;2023-12-20T02:06:29;25.47;;;22.63;;
3259;SDS011;68938;48.150;14.004;2023-12-20T02:08:57;29.80;;;24.77;;
3259;SDS011;68938;48.150;14.004;2023-12-20T02:11:25;30.07;;;23.27;;
3259;SDS011;68938;48.150;14.004;2023-12-20T02:13:53;30.60;;;23.67;;
3259;SDS011;68938;48.150;14.004;2023-12-20T02:16:20;35.57;;;25.60;;
3259;SDS011;68938;48.150;14.004;2023-12-20T02:18:48;25.57;;;21.17;;
3259;SDS011;68938;48.150;14.004;2023-12-20T02:21:16;30.77;;;22.67;;
3259;SDS011;68938;48.150;14.004;2023-12-20T02:23:43;29.00;;;22.60;;
3259;SDS011;68938;48.150;14.004;2023-12-20T02:26:10;29.93;;;23.00;;
3259;SDS011;68938;48.150;14.004;2023-12-20T02:28:37;36.73;;;24.17;;
3259;SDS011;68938;48.150;14.004;2023-12-20T02:31:04;31.90;;;25.40;;
3259;SDS011;68938;48.150;14.004;2023-12-20T02:33:31;26.97;;;24.10;;
3259;SDS011;68938;48.150;14.004;2023-12-20T02:35:58;31.60;;;25.10;;
3259;SDS011;68938;48.150;14.004;2023-12-20T02:38:24;29.37;;;25.10;;
3259;SDS011;68938;48.150;14.004;2023-12-20T02:40:51;32.77;;;25.17;;
3259;SDS011;68938;48.150;14.004;2023-12-20T02:43:18;31.10;;;24.23;;
3259;SDS011;68938;48.150;14.004;2023-12-20T02:45:45;33.03;;;23.20;;
3259;SDS011;68938;48.150;14.004;2023-12-20T02:48:12;31.40;;;26.20;;
3259;SDS011;68938;48.150;14.004;2023-12-20T02:50:39;33.33;;;25.17;;
3259;SDS011;68938;48.150;14.004;2023-12-20T02:53:06;29.30;;;23.40;;
3259;SDS011;68938;48.150;14.004;2023-12-20T02:55:33;27.80;;;24.43;;
3259;SDS011;68938;48.150;14.004;2023-12-20T02:58:00;29.60;;;21.67;;
3259;SDS011;68938;48.150;14.004;2023-12-20T03:00:26;33.83;;;27.03;;
3259;SDS011;68938;48.150;14.004;2023-12-20T03:02:53;29.73;;;22.20;;
3259;SDS011;68938;48.150;14.004;2023-12-20T03:05:20;30.77;;;24.07;;
3259;SDS011;68938;48.150;14.004;2023-12-20T03:07:47;29.33;;;24.10;;
3259;SDS011;68938;48.150;14.004;2023-12-20T03:10:14;31.10;;;26.10;;
3259;SDS011;68938;48.150;14.004;2023-12-20T03:12:52;30.80;;;21.83;;
3259;SDS011;68938;48.150;14.004;2023-12-20T03:15:19;31.90;;;25.33;;
3259;SDS011;68938;48.150;14.004;2023-12-20T03:17:45;31.10;;;24.60;;
3259;SDS011;68938;48.150;14.004;2023-12-20T03:20:13;28.57;;;24.23;;
3259;SDS011;68938;48.150;14.004;2023-12-20T03:22:40;31.00;;;24.77;;
3259;SDS011;68938;48.150;14.004;2023-12-20T03:25:07;32.57;;;22.73;;
3259;SDS011;68938;48.150;14.004;2023-12-20T03:27:36;35.40;;;24.07;;
3259;SDS011;68938;48.150;14.004;2023-12-20T03:30:04;26.60;;;23.47;;
3259;SDS011;68938;48.150;14.004;2023-12-20T03:32:32;27.13;;;21.33;;
3259;SDS011;68938;48.150;14.004;2023-12-20T03:34:59;26.53;;;22.57;;
3259;SDS011;68938;48.150;14.004;2023-12-20T03:37:26;26.20;;;22.13;;
3259;SDS011;68938;48.150;14.004;2023-12-20T03:39:53;28.60;;;21.37;;
3259;SDS011;68938;48.150;14.004;2023-12-20T03:42:19;26.97;;;22.13;;
3259;SDS011;68938;48.150;14.004;2023-12-20T03:44:46;26.30;;;22.70;;
3259;SDS011;68938;48.150;14.004;2023-12-20T03:47:13;28.70;;;22.70;;
3259;SDS011;68938;48.150;14.004;2023-12-20T03:49:40;27.33;;;21.90;;
3259;SDS011;68938;48.150;14.004;2023-12-20T03:52:07;25.97;;;21.53;;
3259;SDS011;68938;48.150;14.004;2023-12-20T03:54:37;28.13;;;23.90;;
3259;SDS011;68938;48.150;14.004;2023-12-20T03:57:04;24.93;;;22.00;;
3259;SDS011;68938;48.150;14.004;2023-12-20T03:59:35;24.97;;;20.63;;
3259;SDS011;68938;48.150;14.004;2023-12-20T04:02:03;26.13;;;23.17;;
3259;SDS011;68938;48.150;14.004;2023-12-20T04:04:30;28.43;;;23.07;;
3259;SDS011;68938;48.150;14.004;2023-12-20T04:06:57;24.90;;;21.93;;
3259;SDS011;68938;48.150;14.004;2023-12-20T04:09:24;26.90;;;23.00;;
3259;SDS011;68938;48.150;14.004;2023-12-20T04:11:51;25.40;;;20.60;;
3259;SDS011;68938;48.150;14.004;2023-12-20T04:14:18;23.90;;;20.47;;
3259;SDS011;68938;48.150;14.004;2023-12-20T04:16:45;29.20;;;21.47;;
3259;SDS011;68938;48.150;14.004;2023-12-20T04:19:13;23.80;;;20.73;;
3259;SDS011;68938;48.150;14.004;2023-12-20T04:21:40;25.77;;;21.70;;
3259;SDS011;68938;48.150;14.004;2023-12-20T04:24:07;24.87;;;20.47;;
3259;SDS011;68938;48.150;14.004;2023-12-20T04:26:34;23.60;;;19.93;;
3259;SDS011;68938;48.150;14.004;2023-12-20T04:29:01;23.00;;;19.63;;
3259;SDS011;68938;48.150;14.004;2023-12-20T04:31:28;24.17;;;20.60;;
3259;SDS011;68938;48.150;14.004;2023-12-20T04:33:55;25.37;;;21.20;;
3259;SDS011;68938;48.150;14.004;2023-12-20T04:36:22;25.10;;;21.50;;
3259;SDS011;68938;48.150;14.004;2023-12-20T04:38:49;24.77;;;22.20;;
3259;SDS011;68938;48.150;14.004;2023-12-20T04:41:16;25.27;;;21.63;;
3259;SDS011;68938;48.150;14.004;2023-12-20T04:43:43;27.23;;;20.70;;
3259;SDS011;68938;48.150;14.004;2023-12-20T04:46:10;26.20;;;21.87;;
3259;SDS011;68938;48.150;14.004;2023-12-20T04:48:37;23.50;;;21.03;;
3259;SDS011;68938;48.150;14.004;2023-12-20T04:51:04;23.40;;;20.67;;
3259;SDS011;68938;48.150;14.004;2023-12-20T04:53:30;22.57;;;19.53;;
3259;SDS011;68938;48.150;14.004;2023-12-20T04:55:57;20.73;;;18.47;;
3259;SDS011;68938;48.150;14.004;2023-12-20T04:58:24;29.97;;;21.60;;
3259;SDS011;68938;48.150;14.004;2023-12-20T05:00:51;25.67;;;20.70;;
3259;SDS011;68938;48.150;14.004;2023-12-20T05:03:18;26.63;;;19.77;;
3259;SDS011;68938;48.150;14.004;2023-12-20T05:05:45;25.33;;;22.63;;
3259;SDS011;68938;48.150;14.004;2023-12-20T05:08:12;22.67;;;20.27;;
3259;SDS011;68938;48.150;14.004;2023-12-20T05:10:39;25.87;;;23.13;;
3259;SDS011;68938;48.150;14.004;2023-12-20T05:13:06;25.37;;;21.60;;
3259;SDS011;68938;48.150;14.004;2023-12-20T05:15:33;26.20;;;21.90;;
3259;SDS011;68938;48.150;14.004;2023-12-20T05:18:00;28.67;;;21.40;;
3259;SDS011;68938;48.150;14.004;2023-12-20T05:20:27;24.50;;;22.00;;
3259;SDS011;68938;48.150;14.004;2023-12-20T05:22:54;23.00;;;20.63;;
3259;SDS011;68938;48.150;14.004;2023-12-20T05:25:21;25.10;;;22.50;;
3259;SDS011;68938;48.150;14.004;2023-12-20T05:27:48;25.57;;;22.73;;
3259;SDS011;68938;48.150;14.004;2023-12-20T05:30:15;27.67;;;24.37;;
3259;SDS011;68938;48.150;14.004;2023-12-20T05:32:42;27.10;;;23.77;;
3259;SDS011;68938;48.150;14.004;2023-12-20T05:35:10;22.73;;;18.77;;
3259;SDS011;68938;48.150;14.004;2023-12-20T05:37:37;25.60;;;22.80;;
3259;SDS011;68938;48.150;14.004;2023-12-20T05:40:04;23.37;;;20.83;;
3259;SDS011;68938;48.150;14.004;2023-12-20T05:42:32;23.97;;;21.17;;
3259;SDS011;68938;48.150;14.004;2023-12-20T05:44:59;22.13;;;19.67;;
3259;SDS011;68938;48.150;14.004;2023-12-20T05:47:25;24.17;;;21.63;;
3259;SDS011;68938;48.150;14.004;2023-12-20T05:49:52;22.07;;;19.77;;
3259;SDS011;68938;48.150;14.004;2023-12-20T05:52:19;22.67;;;20.27;;
3259;SDS011;68938;48.150;14.004;2023-12-20T05:54:46;26.10;;;22.00;;
3259;SDS011;68938;48.150;14.004;2023-12-20T05:57:14;25.40;;;22.90;;
3259;SDS011;68938;48.150;14.004;2023-12-20T05:59:41;26.27;;;23.40;;
3259;SDS011;68938;48.150;14.004;2023-12-20T06:02:08;30.90;;;27.47;;
3259;SDS011;68938;48.150;14.004;2023-12-20T06:04:34;30.23;;;27.53;;
3259;SDS011;68938;48.150;14.004;2023-12-20T06:07:02;21.30;;;19.20;;
3259;SDS011;68938;48.150;14.004;2023-12-20T06:09:29;23.70;;;21.47;;
3259;SDS011;68938;48.150;14.004;2023-12-20T06:11:57;19.57;;;17.53;;
3259;SDS011;68938;48.150;14.004;2023-12-20T06:14:24;18.27;;;16.30;;
3259;SDS011;68938;48.150;14.004;2023-12-20T06:16:51;14.27;;;12.93;;
3259;SDS011;68938;48.150;14.004;2023-12-20T06:19:18;14.63;;;12.93;;
3259;SDS011;68938;48.150;14.004;2023-12-20T06:21:45;14.60;;;13.17;;
3259;SDS011;68938;48.150;14.004;2023-12-20T06:24:12;13.60;;;12.30;;
3259;SDS011;68938;48.150;14.004;2023-12-20T06:26:39;7.97;;;7.17;;
3259;SDS011;68938;48.150;14.004;2023-12-20T06:29:05;10.37;;;6.63;;
3259;SDS011;68938;48.150;14.004;2023-12-20T06:31:33;8.00;;;7.17;;
3259;SDS011;68938;48.150;14.004;2023-12-20T06:34:00;6.10;;;5.50;;
3259;SDS011;68938;48.150;14.004;2023-12-20T06:36:27;5.20;;;4.80;;
3259;SDS011;68938;48.150;14.004;2023-12-20T06:38:54;3.50;;;3.30;;
3259;SDS011;68938;48.150;14.004;2023-12-20T06:41:21;2.40;;;2.20;;
3259;SDS011;68938;48.150;14.004;2023-12-20T06:43:48;2.50;;;2.37;;
3259;SDS011;68938;48.150;14.004;2023-12-20T06:46:16;3.47;;;3.20;;
3259;SDS011;68938;48.150;14.004;2023-12-20T06:48:44;6.93;;;2.63;;
3259;SDS011;68938;48.150;14.004;2023-12-20T06:51:15;3.07;;;2.90;;
3259;SDS011;68938;48.150;14.004;2023-12-20T06:53:42;3.20;;;3.00;;
3259;SDS011;68938;48.150;14.004;2023-12-20T06:56:10;3.00;;;1.97;;
3259;SDS011;68938;48.150;14.004;2023-12-20T06:58:40;3.00;;;1.93;;
3259;SDS011;68938;48.150;14.004;2023-12-20T07:01:11;1.90;;;1.80;;
3259;SDS011;68938;48.150;14.004;2023-12-20T07:03:42;2.30;;;2.20;;
3259;SDS011;68938;48.150;14.004;2023-12-20T07:06:09;2.90;;;2.70;;
3259;SDS011;68938;48.150;14.004;2023-12-20T07:08:36;2.63;;;2.43;;
3259;SDS011;68938;48.150;14.004;2023-12-20T07:11:03;1.60;;;1.50;;
3259;SDS011;68938;48.150;14.004;2023-12-20T07:13:30;2.57;;;2.37;;
3259;SDS011;68938;48.150;14.004;2023-12-20T07:15:57;3.03;;;2.83;;
3259;SDS011;68938;48.150;14.004;2023-12-20T07:18:24;3.00;;;2.80;;
3259;SDS011;68938;48.150;14.004;2023-12-20T07:20:51;2.90;;;2.70;;
3259;SDS011;68938;48.150;14.004;2023-12-20T07:23:18;2.80;;;2.60;;
3259;SDS011;68938;48.150;14.004;2023-12-20T07:25:51;2.77;;;2.67;;
3259;SDS011;68938;48.150;14.004;2023-12-20T07:28:18;3.17;;;2.97;;
3259;SDS011;68938;48.150;14.004;2023-12-20T07:30:45;3.70;;;3.40;;
3259;SDS011;68938;48.150;14.004;2023-12-20T07:33:12;3.30;;;3.00;;
3259;SDS011;68938;48.150;14.004;2023-12-20T07:35:39;3.27;;;3.07;;
3259;SDS011;68938;48.150;14.004;2023-12-20T07:38:06;4.20;;;3.80;;
3259;SDS011;68938;48.150;14.004;2023-12-20T07:40:33;3.90;;;3.70;;
3259;SDS011;68938;48.150;14.004;2023-12-20T07:43:00;3.30;;;3.10;;
3259;SDS011;68938;48.150;14.004;2023-12-20T07:45:27;4.00;;;3.80;;
3259;SDS011;68938;48.150;14.004;2023-12-20T07:47:54;5.00;;;4.70;;
3259;SDS011;68938;48.150;14.004;2023-12-20T07:50:21;4.23;;;3.90;;
3259;SDS011;68938;48.150;14.004;2023-12-20T07:52:48;4.03;;;3.53;;
3259;SDS011;68938;48.150;14.004;2023-12-20T07:55:14;4.67;;;4.10;;
3259;SDS011;68938;48.150;14.004;2023-12-20T07:57:42;5.57;;;4.67;;
3259;SDS011;68938;48.150;14.004;2023-12-20T08:00:09;5.65;;;5.15;;
3259;SDS011;68938;48.150;14.004;2023-12-20T08:02:36;4.57;;;4.23;;
3259;SDS011;68938;48.150;14.004;2023-12-20T08:05:03;5.63;;;4.83;;
3259;SDS011;68938;48.150;14.004;2023-12-20T08:07:30;5.40;;;5.00;;
3259;SDS011;68938;48.150;14.004;2023-12-20T08:09:57;4.93;;;4.50;;
3259;SDS011;68938;48.150;14.004;2023-12-20T08:12:24;3.43;;;3.23;;
3259;SDS011;68938;48.150;14.004;2023-12-20T08:14:51;4.80;;;4.40;;
3259;SDS011;68938;48.150;14.004;2023-12-20T08:17:18;4.30;;;4.00;;
3259;SDS011;68938;48.150;14.004;2023-12-20T08:19:45;5.33;;;4.83;;
3259;SDS011;68938;48.150;14.004;2023-12-20T08:22:12;5.63;;;5.23;;
3259;SDS011;68938;48.150;14.004;2023-12-20T08:24:39;4.60;;;4.23;;
3259;SDS011;68938;48.150;14.004;2023-12-20T08:27:06;4.70;;;4.30;;
3259;SDS011;68938;48.150;14.004;2023-12-20T08:29:33;5.00;;;4.50;;
3259;SDS011;68938;48.150;14.004;2023-12-20T08:32:00;7.17;;;4.67;;
3259;SDS011;68938;48.150;14.004;2023-12-20T08:34:27;3.93;;;3.63;;
3259;SDS011;68938;48.150;14.004;2023-12-20T08:36:54;5.87;;;3.80;;
3259;SDS011;68938;48.150;14.004;2023-12-20T08:39:21;4.03;;;3.67;;
3259;SDS011;68938;48.150;14.004;2023-12-20T08:41:48;4.93;;;4.43;;
3259;SDS011;68938;48.150;14.004;2023-12-20T08:44:15;5.70;;;5.13;;
3259;SDS011;68938;48.150;14.004;2023-12-20T08:46:42;5.63;;;4.57;;
3259;SDS011;68938;48.150;14.004;2023-12-20T08:49:09;4.93;;;4.40;;
3259;SDS011;68938;48.150;14.004;2023-12-20T08:51:37;5.07;;;4.60;;
3259;SDS011;68938;48.150;14.004;2023-12-20T08:54:03;12.40;;;7.60;;
3259;SDS011;68938;48.150;14.004;2023-12-20T08:56:30;5.70;;;5.20;;
3259;SDS011;68938;48.150;14.004;2023-12-20T08:58:57;12.43;;;5.20;;
3259;SDS011;68938;48.150;14.004;2023-12-20T09:01:24;4.60;;;4.30;;
3259;SDS011;68938;48.150;14.004;2023-12-20T09:03:51;4.70;;;4.33;;
3259;SDS011;68938;48.150;14.004;2023-12-20T09:06:18;4.83;;;4.40;;
3259;SDS011;68938;48.150;14.004;2023-12-20T09:08:45;5.03;;;4.63;;
3259;SDS011;68938;48.150;14.004;2023-12-20T09:11:12;4.97;;;4.53;;
3259;SDS011;68938;48.150;14.004;2023-12-20T09:13:39;5.30;;;4.80;;
3259;SDS011;68938;48.150;14.004;2023-12-20T09:16:06;4.70;;;4.40;;
3259;SDS011;68938;48.150;14.004;2023-12-20T09:18:33;5.53;;;5.07;;
3259;SDS011;68938;48.150;14.004;2023-12-20T09:21:00;6.07;;;4.50;;
3259;SDS011;68938;48.150;14.004;2023-12-20T09:23:27;5.30;;;4.57;;
3259;SDS011;68938;48.150;14.004;2023-12-20T09:25:54;4.20;;;3.80;;
3259;SDS011;68938;48.150;14.004;2023-12-20T09:28:23;4.47;;;4.17;;
3259;SDS011;68938;48.150;14.004;2023-12-20T09:30:50;4.83;;;4.53;;
3259;SDS011;68938;48.150;14.004;2023-12-20T09:33:17;4.53;;;4.20;;
3259;SDS011;68938;48.150;14.004;2023-12-20T09:35:44;4.40;;;4.10;;
3259;SDS011;68938;48.150;14.004;2023-12-20T09:38:12;4.50;;;4.10;;
3259;SDS011;68938;48.150;14.004;2023-12-20T09:40:39;4.47;;;4.20;;
3259;SDS011;68938;48.150;14.004;2023-12-20T09:43:09;3.93;;;3.63;;
3259;SDS011;68938;48.150;14.004;2023-12-20T09:45:40;6.87;;;4.33;;
3259;SDS011;68938;48.150;14.004;2023-12-20T09:48:09;3.20;;;2.90;;
3259;SDS011;68938;48.150;14.004;2023-12-20T09:50:37;2.40;;;2.13;;
3259;SDS011;68938;48.150;14.004;2023-12-20T09:53:04;1.70;;;1.70;;
3259;SDS011;68938;48.150;14.004;2023-12-20T09:55:34;2.37;;;2.27;;
3259;SDS011;68938;48.150;14.004;2023-12-20T09:58:03;2.30;;;2.20;;
3259;SDS011;68938;48.150;14.004;2023-12-20T10:00:30;2.80;;;2.70;;
3259;SDS011;68938;48.150;14.004;2023-12-20T10:02:57;2.60;;;2.50;;
3259;SDS011;68938;48.150;14.004;2023-12-20T10:05:33;2.10;;;2.00;;
3259;SDS011;68938;48.150;14.004;2023-12-20T10:08:01;3.43;;;2.60;;
3259;SDS011;68938;48.150;14.004;2023-12-20T10:10:29;2.40;;;2.30;;
3259;SDS011;68938;48.150;14.004;2023-12-20T10:13:10;3.07;;;2.87;;
3259;SDS011;68938;48.150;14.004;2023-12-20T10:15:39;3.57;;;3.37;;
3259;SDS011;68938;48.150;14.004;2023-12-20T10:18:06;4.50;;;4.20;;
3259;SDS011;68938;48.150;14.004;2023-12-20T10:20:33;4.50;;;4.30;;
3259;SDS011;68938;48.150;14.004;2023-12-20T10:23:00;3.93;;;3.63;;
3259;SDS011;68938;48.150;14.004;2023-12-20T10:25:28;3.30;;;3.00;;
3259;SDS011;68938;48.150;14.004;2023-12-20T10:28:14;1.97;;;1.97;;
3259;SDS011;68938;48.150;14.004;2023-12-20T10:30:42;1.77;;;1.77;;
3259;SDS011;68938;48.150;14.004;2023-12-20T10:33:09;1.80;;;1.70;;
3259;SDS011;68938;48.150;14.004;2023-12-20T10:35:38;1.63;;;1.53;;
3259;SDS011;68938;48.150;14.004;2023-12-20T10:38:11;1.87;;;1.47;;
3259;SDS011;68938;48.150;14.004;2023-12-20T10:40:39;1.80;;;1.70;;
3259;SDS011;68938;48.150;14.004;2023-12-20T10:43:05;1.93;;;1.83;;
3259;SDS011;68938;48.150;14.004;2023-12-20T10:45:33;1.93;;;1.83;;
3259;SDS011;68938;48.150;14.004;2023-12-20T10:48:01;2.97;;;2.13;;
3259;SDS011;68938;48.150;14.004;2023-12-20T10:50:29;5.17;;;4.67;;
3259;SDS011;68938;48.150;14.004;2023-12-20T10:52:58;2.80;;;2.50;;
3259;SDS011;68938;48.150;14.004;2023-12-20T10:55:26;2.70;;;2.50;;
3259;SDS011;68938;48.150;14.004;2023-12-20T10:57:54;2.73;;;2.53;;
3259;SDS011;68938;48.150;14.004;2023-12-20T11:00:28;2.23;;;1.83;;
3259;SDS011;68938;48.150;14.004;2023-12-20T11:02:59;2.47;;;1.93;;
3259;SDS011;68938;48.150;14.004;2023-12-20T11:05:33;2.00;;;1.90;;
3259;SDS011;68938;48.150;14.004;2023-12-20T11:08:33;2.50;;;2.23;;
3259;SDS011;68938;48.150;14.004;2023-12-20T11:11:32;3.10;;;2.20;;
3259;SDS011;68938;48.150;14.004;2023-12-20T11:14:25;3.30;;;1.90;;
3259;SDS011;68938;48.150;14.004;2023-12-20T11:17:08;2.80;;;2.00;;
3259;SDS011;68938;48.150;14.004;2023-12-20T11:19:36;1.53;;;1.43;;
3259;SDS011;68938;48.150;14.004;2023-12-20T11:22:10;1.33;;;1.30;;
3259;SDS011;68938;48.150;14.004;2023-12-20T11:24:38;1.30;;;1.20;;
3259;SDS011;68938;48.150;14.004;2023-12-20T11:27:12;1.27;;;1.17;;
3259;SDS011;68938;48.150;14.004;2023-12-20T11:29:40;1.30;;;1.30;;
3259;SDS011;68938;48.150;14.004;2023-12-20T11:34:54;1.20;;;0.97;;
3259;SDS011;68938;48.150;14.004;2023-12-20T11:37:27;1.00;;;1.00;;
3259;SDS011;68938;48.150;14.004;2023-12-20T11:40:00;0.80;;;0.80;;
3259;SDS011;68938;48.150;14.004;2023-12-20T11:42:33;0.77;;;0.77;;
3259;SDS011;68938;48.150;14.004;2023-12-20T11:45:04;1.00;;;1.00;;
3259;SDS011;68938;48.150;14.004;2023-12-20T11:47:35;2.03;;;1.60;;
3259;SDS011;68938;48.150;14.004;2023-12-20T11:50:03;4.60;;;3.23;;
3259;SDS011;68938;48.150;14.004;2023-12-20T11:52:30;2.63;;;2.43;;
3259;SDS011;68938;48.150;14.004;2023-12-20T11:54:57;7.40;;;2.13;;
3259;SDS011;68938;48.150;14.004;2023-12-20T11:57:24;4.27;;;3.20;;
3259;SDS011;68938;48.150;14.004;2023-12-20T11:59:54;2.70;;;2.20;;
3259;SDS011;68938;48.150;14.004;2023-12-20T12:02:21;1.50;;;1.40;;
3259;SDS011;68938;48.150;14.004;2023-12-20T12:04:48;1.90;;;1.80;;
3259;SDS011;68938;48.150;14.004;2023-12-20T12:07:16;1.70;;;1.60;;
3259;SDS011;68938;48.150;14.004;2023-12-20T12:09:44;1.03;;;1.03;;
3259;SDS011;68938;48.150;14.004;2023-12-20T12:12:11;5.30;;;1.00;;
3259;SDS011;68938;48.150;14.004;2023-12-20T12:14:40;1.20;;;1.20;;
3259;SDS011;68938;48.150;14.004;2023-12-20T12:17:13;1.60;;;1.50;;
3259;SDS011;68938;48.150;14.004;2023-12-20T12:19:41;2.47;;;2.00;;
3259;SDS011;68938;48.150;14.004;2023-12-20T12:22:15;2.30;;;2.20;;
3259;SDS011;68938;48.150;14.004;2023-12-20T12:24:43;2.17;;;2.07;;
3259;SDS011;68938;48.150;14.004;2023-12-20T12:27:11;1.83;;;1.73;;
3259;SDS011;68938;48.150;14.004;2023-12-20T12:30:00;1.13;;;1.13;;
3259;SDS011;68938;48.150;14.004;2023-12-20T12:32:32;1.33;;;1.30;;
3259;SDS011;68938;48.150;14.004;2023-12-20T12:34:59;1.53;;;1.20;;
3259;SDS011;68938;48.150;14.004;2023-12-20T12:37:26;1.60;;;1.50;;
3259;SDS011;68938;48.150;14.004;2023-12-20T12:39:53;1.80;;;1.70;;
3259;SDS011;68938;48.150;14.004;2023-12-20T12:42:20;1.77;;;1.77;;
3259;SDS011;68938;48.150;14.004;2023-12-20T12:44:47;1.67;;;1.40;;
3259;SDS011;68938;48.150;14.004;2023-12-20T12:47:14;1.60;;;1.50;;
3259;SDS011;68938;48.150;14.004;2023-12-20T12:49:41;1.60;;;1.50;;
3259;SDS011;68938;48.150;14.004;2023-12-20T12:52:08;1.77;;;1.67;;
3259;SDS011;68938;48.150;14.004;2023-12-20T12:54:35;6.40;;;1.70;;
3259;SDS011;68938;48.150;14.004;2023-12-20T12:57:02;1.77;;;1.70;;
3259;SDS011;68938;48.150;14.004;2023-12-20T12:59:29;1.87;;;1.77;;
3259;SDS011;68938;48.150;14.004;2023-12-20T13:01:56;2.07;;;1.97;;
3259;SDS011;68938;48.150;14.004;2023-12-20T13:04:23;2.13;;;2.03;;
3259;SDS011;68938;48.150;14.004;2023-12-20T13:06:50;2.83;;;2.63;;
3259;SDS011;68938;48.150;14.004;2023-12-20T13:09:17;1.75;;;1.65;;
3259;SDS011;68938;48.150;14.004;2023-12-20T13:11:44;3.13;;;2.27;;
3259;SDS011;68938;48.150;14.004;2023-12-20T13:14:11;2.17;;;2.07;;
3259;SDS011;68938;48.150;14.004;2023-12-20T13:16:38;2.40;;;2.30;;
3259;SDS011;68938;48.150;14.004;2023-12-20T13:19:04;2.30;;;2.20;;
3259;SDS011;68938;48.150;14.004;2023-12-20T13:21:32;2.70;;;2.60;;
3259;SDS011;68938;48.150;14.004;2023-12-20T13:23:59;2.60;;;2.50;;
3259;SDS011;68938;48.150;14.004;2023-12-20T13:26:25;2.53;;;2.43;;
3259;SDS011;68938;48.150;14.004;2023-12-20T13:28:53;2.40;;;2.30;;
3259;SDS011;68938;48.150;14.004;2023-12-20T13:31:20;2.40;;;2.30;;
3259;SDS011;68938;48.150;14.004;2023-12-20T13:33:48;2.23;;;2.23;;
3259;SDS011;68938;48.150;14.004;2023-12-20T13:36:15;2.70;;;2.60;;
3259;SDS011;68938;48.150;14.004;2023-12-20T13:38:42;2.43;;;2.33;;
3259;SDS011;68938;48.150;14.004;2023-12-20T13:41:09;3.17;;;2.67;;
3259;SDS011;68938;48.150;14.004;2023-12-20T13:43:36;3.97;;;2.20;;
3259;SDS011;68938;48.150;14.004;2023-12-20T13:46:03;2.37;;;2.27;;
3259;SDS011;68938;48.150;14.004;2023-12-20T13:48:30;2.70;;;2.60;;
3259;SDS011;68938;48.150;14.004;2023-12-20T13:50:57;2.50;;;2.40;;
3259;SDS011;68938;48.150;14.004;2023-12-20T13:53:24;2.50;;;2.40;;
3259;SDS011;68938;48.150;14.004;2023-12-20T13:55:51;2.37;;;2.27;;
3259;SDS011;68938;48.150;14.004;2023-12-20T13:58:18;3.20;;;2.90;;
3259;SDS011;68938;48.150;14.004;2023-12-20T14:00:45;2.20;;;2.07;;
3259;SDS011;68938;48.150;14.004;2023-12-20T14:03:12;2.10;;;2.00;;
3259;SDS011;68938;48.150;14.004;2023-12-20T14:05:40;2.00;;;1.90;;
3259;SDS011;68938;48.150;14.004;2023-12-20T14:08:07;2.20;;;2.07;;
3259;SDS011;68938;48.150;14.004;2023-12-20T14:10:34;2.17;;;2.07;;
3259;SDS011;68938;48.150;14.004;2023-12-20T14:13:01;1.93;;;1.83;;
3259;SDS011;68938;48.150;14.004;2023-12-20T14:15:28;1.93;;;1.83;;
3259;SDS011;68938;48.150;14.004;2023-12-20T14:17:55;1.57;;;1.47;;
3259;SDS011;68938;48.150;14.004;2023-12-20T14:20:22;2.20;;;1.80;;
3259;SDS011;68938;48.150;14.004;2023-12-20T14:22:49;1.90;;;1.80;;
3259;SDS011;68938;48.150;14.004;2023-12-20T14:25:16;1.50;;;1.50;;
3259;SDS011;68938;48.150;14.004;2023-12-20T14:27:43;2.37;;;2.27;;
3259;SDS011;68938;48.150;14.004;2023-12-20T14:30:12;2.30;;;2.20;;
3259;SDS011;68938;48.150;14.004;2023-12-20T14:32:39;1.90;;;1.50;;
3259;SDS011;68938;48.150;14.004;2023-12-20T14:35:06;2.37;;;2.27;;
3259;SDS011;68938;48.150;14.004;2023-12-20T14:37:34;2.20;;;2.10;;
3259;SDS011;68938;48.150;14.004;2023-12-20T14:40:02;1.57;;;1.57;;
3259;SDS011;68938;48.150;14.004;2023-12-20T14:42:29;2.00;;;2.00;;